sensor_id;sensor_type;location;lat;lon;timestamp;P1;durP1;ratioP1;P2;durP2;ratioP2
10880;SDS011;5493;48.884;8.338;2023-02-26T00:02:06;3.03;;;2.20;;
10880;SDS011;5493;48.884;8.338;2023-02-26T00:04:34;2.90;;;2.60;;
10880;SDS011;5493;48.884;8.338;2023-02-26T00:07:03;4.60;;;2.50;;
10880;SDS011;5493;48.884;8.338;2023-02-26T00:09:30;2.80;;;1.90;;
10880;SDS011;5493;48.884;8.338;2023-02-26T00:11:57;2.73;;;2.00;;
10880;SDS011;5493;48.884;8.338;2023-02-26T00:14:25;3.30;;;2.17;;
10880;SDS011;5493;48.884;8.338;2023-02-26T00:16:55;2.50;;;1.90;;
10880;SDS011;5493;48.884;8.338;2023-02-26T00:19:34;2.20;;;2.00;;
10880;SDS011;5493;48.884;8.338;2023-02-26T00:22:02;3.13;;;1.80;;
10880;SDS011;5493;48.884;8.338;2023-02-26T00:24:29;2.27;;;1.57;;
10880;SDS011;5493;48.884;8.338;2023-02-26T00:26:56;1.80;;;1.67;;
10880;SDS011;5493;48.884;8.338;2023-02-26T00:29:23;2.80;;;1.33;;
10880;SDS011;5493;48.884;8.338;2023-02-26T00:31:50;1.70;;;1.60;;
10880;SDS011;5493;48.884;8.338;2023-02-26T00:34:17;1.50;;;1.40;;
10880;SDS011;5493;48.884;8.338;2023-02-26T00:36:45;2.83;;;1.60;;
10880;SDS011;5493;48.884;8.338;2023-02-26T00:39:23;2.23;;;1.67;;
10880;SDS011;5493;48.884;8.338;2023-02-26T00:42:00;1.43;;;1.33;;
10880;SDS011;5493;48.884;8.338;2023-02-26T00:44:27;4.07;;;1.63;;
10880;SDS011;5493;48.884;8.338;2023-02-26T00:46:58;2.70;;;1.50;;
10880;SDS011;5493;48.884;8.338;2023-02-26T00:49:36;1.43;;;1.23;;
10880;SDS011;5493;48.884;8.338;2023-02-26T00:52:18;2.43;;;1.33;;
10880;SDS011;5493;48.884;8.338;2023-02-26T00:54:52;3.60;;;1.40;;
10880;SDS011;5493;48.884;8.338;2023-02-26T00:57:19;2.50;;;1.47;;
10880;SDS011;5493;48.884;8.338;2023-02-26T00:59:45;3.53;;;1.70;;
10880;SDS011;5493;48.884;8.338;2023-02-26T01:02:12;2.90;;;1.63;;
10880;SDS011;5493;48.884;8.338;2023-02-26T01:04:39;2.33;;;1.50;;
10880;SDS011;5493;48.884;8.338;2023-02-26T01:07:06;1.60;;;1.50;;
10880;SDS011;5493;48.884;8.338;2023-02-26T01:09:36;1.83;;;1.20;;
10880;SDS011;5493;48.884;8.338;2023-02-26T01:12:06;2.23;;;1.40;;
10880;SDS011;5493;48.884;8.338;2023-02-26T01:14:35;1.53;;;1.43;;
10880;SDS011;5493;48.884;8.338;2023-02-26T01:17:05;1.70;;;1.60;;
10880;SDS011;5493;48.884;8.338;2023-02-26T01:19:37;1.90;;;1.50;;
10880;SDS011;5493;48.884;8.338;2023-02-26T01:22:12;2.27;;;1.67;;
10880;SDS011;5493;48.884;8.338;2023-02-26T01:24:42;2.53;;;1.27;;
10880;SDS011;5493;48.884;8.338;2023-02-26T01:27:10;4.07;;;1.50;;
10880;SDS011;5493;48.884;8.338;2023-02-26T01:29:37;1.90;;;1.50;;
10880;SDS011;5493;48.884;8.338;2023-02-26T01:32:05;2.27;;;1.27;;
10880;SDS011;5493;48.884;8.338;2023-02-26T01:34:38;3.63;;;1.63;;
10880;SDS011;5493;48.884;8.338;2023-02-26T01:37:13;2.83;;;1.50;;
10880;SDS011;5493;48.884;8.338;2023-02-26T01:39:50;3.57;;;1.40;;
10880;SDS011;5493;48.884;8.338;2023-02-26T01:42:40;1.83;;;1.13;;
10880;SDS011;5493;48.884;8.338;2023-02-26T01:45:10;1.83;;;1.47;;
10880;SDS011;5493;48.884;8.338;2023-02-26T01:47:38;3.97;;;1.50;;
10880;SDS011;5493;48.884;8.338;2023-02-26T01:50:10;2.30;;;1.53;;
10880;SDS011;5493;48.884;8.338;2023-02-26T01:55:44;2.73;;;1.53;;
10880;SDS011;5493;48.884;8.338;2023-02-26T01:58:16;3.20;;;1.53;;
10880;SDS011;5493;48.884;8.338;2023-02-26T02:00:45;2.17;;;1.57;;
10880;SDS011;5493;48.884;8.338;2023-02-26T02:03:11;1.67;;;1.57;;
10880;SDS011;5493;48.884;8.338;2023-02-26T02:05:39;3.47;;;1.57;;
10880;SDS011;5493;48.884;8.338;2023-02-26T02:08:09;2.83;;;1.70;;
10880;SDS011;5493;48.884;8.338;2023-02-26T02:10:36;1.50;;;1.40;;
10880;SDS011;5493;48.884;8.338;2023-02-26T02:13:09;2.27;;;1.43;;
10880;SDS011;5493;48.884;8.338;2023-02-26T02:15:46;1.83;;;1.70;;
10880;SDS011;5493;48.884;8.338;2023-02-26T02:18:21;1.80;;;1.30;;
10880;SDS011;5493;48.884;8.338;2023-02-26T02:23:55;2.87;;;1.33;;
10880;SDS011;5493;48.884;8.338;2023-02-26T02:32:24;1.93;;;1.40;;
10880;SDS011;5493;48.884;8.338;2023-02-26T02:34:57;3.53;;;1.63;;
10880;SDS011;5493;48.884;8.338;2023-02-26T02:37:33;4.17;;;1.70;;
10880;SDS011;5493;48.884;8.338;2023-02-26T02:40:03;1.73;;;1.40;;
10880;SDS011;5493;48.884;8.338;2023-02-26T02:42:34;1.37;;;1.27;;
10880;SDS011;5493;48.884;8.338;2023-02-26T02:45:08;1.70;;;1.40;;
10880;SDS011;5493;48.884;8.338;2023-02-26T02:47:43;2.57;;;1.60;;
10880;SDS011;5493;48.884;8.338;2023-02-26T02:50:16;2.10;;;1.43;;
10880;SDS011;5493;48.884;8.338;2023-02-26T02:52:50;2.87;;;1.40;;
10880;SDS011;5493;48.884;8.338;2023-02-26T02:55:23;1.43;;;1.33;;
10880;SDS011;5493;48.884;8.338;2023-02-26T02:57:54;5.93;;;1.60;;
10880;SDS011;5493;48.884;8.338;2023-02-26T03:00:24;2.60;;;1.70;;
10880;SDS011;5493;48.884;8.338;2023-02-26T03:02:56;1.60;;;1.40;;
10880;SDS011;5493;48.884;8.338;2023-02-26T03:05:27;1.73;;;1.27;;
10880;SDS011;5493;48.884;8.338;2023-02-26T03:07:55;1.77;;;1.67;;
10880;SDS011;5493;48.884;8.338;2023-02-26T03:10:25;1.80;;;1.50;;
10880;SDS011;5493;48.884;8.338;2023-02-26T03:12:52;5.10;;;1.40;;
10880;SDS011;5493;48.884;8.338;2023-02-26T03:15:25;2.67;;;1.80;;
10880;SDS011;5493;48.884;8.338;2023-02-26T03:18:02;4.10;;;1.67;;
10880;SDS011;5493;48.884;8.338;2023-02-26T03:20:35;1.50;;;1.40;;
10880;SDS011;5493;48.884;8.338;2023-02-26T03:23:11;2.70;;;1.43;;
10880;SDS011;5493;48.884;8.338;2023-02-26T03:25:46;2.97;;;1.50;;
10880;SDS011;5493;48.884;8.338;2023-02-26T03:28:16;3.30;;;1.53;;
10880;SDS011;5493;48.884;8.338;2023-02-26T03:30:51;1.90;;;1.57;;
10880;SDS011;5493;48.884;8.338;2023-02-26T03:33:23;1.67;;;1.57;;
10880;SDS011;5493;48.884;8.338;2023-02-26T03:35:54;2.87;;;1.90;;
10880;SDS011;5493;48.884;8.338;2023-02-26T03:38:26;2.60;;;1.70;;
10880;SDS011;5493;48.884;8.338;2023-02-26T03:40:58;1.57;;;1.47;;
10880;SDS011;5493;48.884;8.338;2023-02-26T03:43:29;1.47;;;1.30;;
10880;SDS011;5493;48.884;8.338;2023-02-26T03:46:00;4.43;;;1.40;;
10880;SDS011;5493;48.884;8.338;2023-02-26T03:48:33;2.90;;;1.80;;
10880;SDS011;5493;48.884;8.338;2023-02-26T03:51:02;3.57;;;1.47;;
10880;SDS011;5493;48.884;8.338;2023-02-26T03:53:33;1.40;;;1.30;;
10880;SDS011;5493;48.884;8.338;2023-02-26T03:56:05;2.73;;;1.80;;
10880;SDS011;5493;48.884;8.338;2023-02-26T03:58:38;1.87;;;1.50;;
10880;SDS011;5493;48.884;8.338;2023-02-26T04:01:06;1.40;;;1.30;;
10880;SDS011;5493;48.884;8.338;2023-02-26T04:03:39;2.37;;;1.50;;
10880;SDS011;5493;48.884;8.338;2023-02-26T04:06:10;1.50;;;1.40;;
10880;SDS011;5493;48.884;8.338;2023-02-26T04:08:37;4.10;;;1.63;;
10880;SDS011;5493;48.884;8.338;2023-02-26T04:11:04;3.37;;;1.80;;
10880;SDS011;5493;48.884;8.338;2023-02-26T04:13:34;2.77;;;1.60;;
10880;SDS011;5493;48.884;8.338;2023-02-26T04:16:00;2.00;;;1.57;;
10880;SDS011;5493;48.884;8.338;2023-02-26T04:18:27;1.83;;;1.50;;
10880;SDS011;5493;48.884;8.338;2023-02-26T04:20:55;1.43;;;1.33;;
10880;SDS011;5493;48.884;8.338;2023-02-26T04:23:22;1.60;;;1.40;;
10880;SDS011;5493;48.884;8.338;2023-02-26T04:25:48;3.00;;;1.60;;
10880;SDS011;5493;48.884;8.338;2023-02-26T04:28:15;2.13;;;1.83;;
10880;SDS011;5493;48.884;8.338;2023-02-26T04:30:42;1.97;;;1.77;;
10880;SDS011;5493;48.884;8.338;2023-02-26T04:33:09;1.70;;;1.60;;
10880;SDS011;5493;48.884;8.338;2023-02-26T04:35:35;3.13;;;1.87;;
10880;SDS011;5493;48.884;8.338;2023-02-26T04:38:03;2.77;;;1.83;;
10880;SDS011;5493;48.884;8.338;2023-02-26T04:40:30;1.93;;;1.50;;
10880;SDS011;5493;48.884;8.338;2023-02-26T04:42:57;2.57;;;2.03;;
10880;SDS011;5493;48.884;8.338;2023-02-26T04:45:23;2.83;;;1.80;;
10880;SDS011;5493;48.884;8.338;2023-02-26T04:47:50;4.40;;;1.67;;
10880;SDS011;5493;48.884;8.338;2023-02-26T04:50:16;3.07;;;1.43;;
10880;SDS011;5493;48.884;8.338;2023-02-26T04:52:43;4.27;;;1.30;;
10880;SDS011;5493;48.884;8.338;2023-02-26T04:55:11;3.17;;;1.80;;
10880;SDS011;5493;48.884;8.338;2023-02-26T04:57:38;2.03;;;1.37;;
10880;SDS011;5493;48.884;8.338;2023-02-26T05:00:05;3.00;;;1.60;;
10880;SDS011;5493;48.884;8.338;2023-02-26T05:02:33;1.97;;;1.40;;
10880;SDS011;5493;48.884;8.338;2023-02-26T05:05:02;3.90;;;1.80;;
10880;SDS011;5493;48.884;8.338;2023-02-26T05:07:31;1.77;;;1.60;;
10880;SDS011;5493;48.884;8.338;2023-02-26T05:09:57;2.20;;;1.40;;
10880;SDS011;5493;48.884;8.338;2023-02-26T05:12:25;2.97;;;1.30;;
10880;SDS011;5493;48.884;8.338;2023-02-26T05:14:52;2.23;;;1.60;;
10880;SDS011;5493;48.884;8.338;2023-02-26T05:17:19;2.60;;;1.67;;
10880;SDS011;5493;48.884;8.338;2023-02-26T05:19:46;3.90;;;1.40;;
10880;SDS011;5493;48.884;8.338;2023-02-26T05:22:12;2.77;;;1.57;;
10880;SDS011;5493;48.884;8.338;2023-02-26T05:24:39;0.87;;;0.83;;
10880;SDS011;5493;48.884;8.338;2023-02-26T05:27:05;3.17;;;1.90;;
10880;SDS011;5493;48.884;8.338;2023-02-26T05:29:33;3.63;;;1.60;;
10880;SDS011;5493;48.884;8.338;2023-02-26T05:32:00;1.80;;;1.40;;
10880;SDS011;5493;48.884;8.338;2023-02-26T05:34:27;1.67;;;1.43;;
10880;SDS011;5493;48.884;8.338;2023-02-26T05:36:54;3.50;;;1.43;;
10880;SDS011;5493;48.884;8.338;2023-02-26T05:39:20;3.43;;;2.20;;
10880;SDS011;5493;48.884;8.338;2023-02-26T05:41:47;4.10;;;2.80;;
10880;SDS011;5493;48.884;8.338;2023-02-26T05:44:13;3.83;;;2.27;;
10880;SDS011;5493;48.884;8.338;2023-02-26T05:46:41;2.77;;;1.83;;
10880;SDS011;5493;48.884;8.338;2023-02-26T05:49:08;2.60;;;2.07;;
10880;SDS011;5493;48.884;8.338;2023-02-26T05:51:34;3.87;;;2.10;;
10880;SDS011;5493;48.884;8.338;2023-02-26T05:54:01;3.87;;;1.77;;
10880;SDS011;5493;48.884;8.338;2023-02-26T05:56:28;2.13;;;1.73;;
10880;SDS011;5493;48.884;8.338;2023-02-26T05:58:54;2.70;;;1.67;;
10880;SDS011;5493;48.884;8.338;2023-02-26T06:01:21;2.23;;;1.73;;
10880;SDS011;5493;48.884;8.338;2023-02-26T06:03:49;3.07;;;1.90;;
10880;SDS011;5493;48.884;8.338;2023-02-26T06:06:15;1.83;;;1.60;;
10880;SDS011;5493;48.884;8.338;2023-02-26T06:08:42;2.37;;;1.73;;
10880;SDS011;5493;48.884;8.338;2023-02-26T06:11:09;3.20;;;1.80;;
10880;SDS011;5493;48.884;8.338;2023-02-26T06:13:36;1.90;;;1.67;;
10880;SDS011;5493;48.884;8.338;2023-02-26T06:16:03;4.07;;;2.30;;
10880;SDS011;5493;48.884;8.338;2023-02-26T06:18:30;2.50;;;1.70;;
10880;SDS011;5493;48.884;8.338;2023-02-26T06:20:59;3.47;;;1.93;;
10880;SDS011;5493;48.884;8.338;2023-02-26T06:23:26;3.33;;;2.10;;
10880;SDS011;5493;48.884;8.338;2023-02-26T06:25:52;5.90;;;2.23;;
10880;SDS011;5493;48.884;8.338;2023-02-26T06:28:19;2.67;;;1.90;;
10880;SDS011;5493;48.884;8.338;2023-02-26T06:30:48;3.23;;;1.97;;
10880;SDS011;5493;48.884;8.338;2023-02-26T06:33:15;6.07;;;2.47;;
10880;SDS011;5493;48.884;8.338;2023-02-26T06:35:41;2.87;;;1.87;;
10880;SDS011;5493;48.884;8.338;2023-02-26T06:38:09;2.77;;;1.90;;
10880;SDS011;5493;48.884;8.338;2023-02-26T06:40:36;5.17;;;2.00;;
10880;SDS011;5493;48.884;8.338;2023-02-26T06:43:02;3.00;;;1.77;;
10880;SDS011;5493;48.884;8.338;2023-02-26T06:45:29;3.47;;;2.50;;
10880;SDS011;5493;48.884;8.338;2023-02-26T06:47:55;3.90;;;3.20;;
10880;SDS011;5493;48.884;8.338;2023-02-26T06:50:22;8.93;;;5.53;;
10880;SDS011;5493;48.884;8.338;2023-02-26T06:52:49;11.80;;;5.20;;
10880;SDS011;5493;48.884;8.338;2023-02-26T06:55:17;7.03;;;4.73;;
10880;SDS011;5493;48.884;8.338;2023-02-26T06:57:45;6.07;;;3.50;;
10880;SDS011;5493;48.884;8.338;2023-02-26T07:00:12;5.33;;;2.40;;
10880;SDS011;5493;48.884;8.338;2023-02-26T07:02:39;3.43;;;2.07;;
10880;SDS011;5493;48.884;8.338;2023-02-26T07:05:06;3.20;;;2.00;;
10880;SDS011;5493;48.884;8.338;2023-02-26T07:07:33;7.43;;;2.57;;
10880;SDS011;5493;48.884;8.338;2023-02-26T07:10:00;2.67;;;2.17;;
10880;SDS011;5493;48.884;8.338;2023-02-26T07:12:27;4.83;;;2.03;;
10880;SDS011;5493;48.884;8.338;2023-02-26T07:14:54;5.90;;;2.77;;
10880;SDS011;5493;48.884;8.338;2023-02-26T07:17:20;3.53;;;2.10;;
10880;SDS011;5493;48.884;8.338;2023-02-26T07:19:48;3.73;;;1.87;;
10880;SDS011;5493;48.884;8.338;2023-02-26T07:22:15;5.37;;;1.90;;
10880;SDS011;5493;48.884;8.338;2023-02-26T07:24:43;2.83;;;1.90;;
10880;SDS011;5493;48.884;8.338;2023-02-26T07:27:10;2.93;;;1.87;;
10880;SDS011;5493;48.884;8.338;2023-02-26T07:29:38;5.13;;;2.57;;
10880;SDS011;5493;48.884;8.338;2023-02-26T07:32:05;2.17;;;1.97;;
10880;SDS011;5493;48.884;8.338;2023-02-26T07:34:32;2.53;;;2.13;;
10880;SDS011;5493;48.884;8.338;2023-02-26T07:36:58;4.40;;;1.90;;
10880;SDS011;5493;48.884;8.338;2023-02-26T07:39:25;7.40;;;2.10;;
10880;SDS011;5493;48.884;8.338;2023-02-26T07:41:51;2.87;;;1.70;;
10880;SDS011;5493;48.884;8.338;2023-02-26T07:44:18;2.33;;;1.97;;
10880;SDS011;5493;48.884;8.338;2023-02-26T07:46:46;3.00;;;2.03;;
10880;SDS011;5493;48.884;8.338;2023-02-26T07:49:13;3.03;;;2.00;;
10880;SDS011;5493;48.884;8.338;2023-02-26T07:51:40;2.33;;;1.60;;
10880;SDS011;5493;48.884;8.338;2023-02-26T07:54:09;2.77;;;2.00;;
10880;SDS011;5493;48.884;8.338;2023-02-26T07:56:36;3.80;;;2.40;;
10880;SDS011;5493;48.884;8.338;2023-02-26T07:59:03;3.47;;;2.37;;
10880;SDS011;5493;48.884;8.338;2023-02-26T08:01:30;2.03;;;1.83;;
10880;SDS011;5493;48.884;8.338;2023-02-26T08:03:58;3.07;;;2.13;;
10880;SDS011;5493;48.884;8.338;2023-02-26T08:06:25;1.87;;;1.23;;
10880;SDS011;5493;48.884;8.338;2023-02-26T08:08:51;2.60;;;1.60;;
10880;SDS011;5493;48.884;8.338;2023-02-26T08:11:18;2.50;;;1.77;;
10880;SDS011;5493;48.884;8.338;2023-02-26T08:13:44;4.70;;;1.90;;
10880;SDS011;5493;48.884;8.338;2023-02-26T08:16:11;2.87;;;1.50;;
10880;SDS011;5493;48.884;8.338;2023-02-26T08:18:37;5.60;;;2.33;;
10880;SDS011;5493;48.884;8.338;2023-02-26T08:21:05;3.47;;;2.00;;
10880;SDS011;5493;48.884;8.338;2023-02-26T08:23:32;4.17;;;1.70;;
10880;SDS011;5493;48.884;8.338;2023-02-26T08:25:59;2.07;;;1.67;;
10880;SDS011;5493;48.884;8.338;2023-02-26T08:28:26;3.53;;;1.87;;
10880;SDS011;5493;48.884;8.338;2023-02-26T08:30:53;1.90;;;1.70;;
10880;SDS011;5493;48.884;8.338;2023-02-26T08:33:20;3.30;;;1.90;;
10880;SDS011;5493;48.884;8.338;2023-02-26T08:35:47;2.03;;;1.67;;
10880;SDS011;5493;48.884;8.338;2023-02-26T08:38:15;4.40;;;1.77;;
10880;SDS011;5493;48.884;8.338;2023-02-26T08:40:41;2.53;;;1.93;;
10880;SDS011;5493;48.884;8.338;2023-02-26T08:43:08;5.93;;;2.30;;
10880;SDS011;5493;48.884;8.338;2023-02-26T08:45:35;2.83;;;1.80;;
10880;SDS011;5493;48.884;8.338;2023-02-26T08:48:02;5.73;;;1.90;;
10880;SDS011;5493;48.884;8.338;2023-02-26T08:50:29;3.33;;;1.30;;
10880;SDS011;5493;48.884;8.338;2023-02-26T08:52:55;3.13;;;1.83;;
10880;SDS011;5493;48.884;8.338;2023-02-26T08:55:24;3.97;;;2.30;;
10880;SDS011;5493;48.884;8.338;2023-02-26T08:57:50;3.10;;;1.67;;
10880;SDS011;5493;48.884;8.338;2023-02-26T09:00:18;2.80;;;1.90;;
10880;SDS011;5493;48.884;8.338;2023-02-26T09:02:45;1.97;;;1.60;;
10880;SDS011;5493;48.884;8.338;2023-02-26T09:05:12;2.43;;;1.60;;
10880;SDS011;5493;48.884;8.338;2023-02-26T09:07:39;6.23;;;1.70;;
10880;SDS011;5493;48.884;8.338;2023-02-26T09:10:09;3.93;;;1.47;;
10880;SDS011;5493;48.884;8.338;2023-02-26T09:12:38;3.43;;;1.67;;
10880;SDS011;5493;48.884;8.338;2023-02-26T09:15:06;1.90;;;1.40;;
10880;SDS011;5493;48.884;8.338;2023-02-26T09:17:35;1.93;;;1.47;;
10880;SDS011;5493;48.884;8.338;2023-02-26T09:20:02;6.33;;;1.73;;
10880;SDS011;5493;48.884;8.338;2023-02-26T09:22:29;3.67;;;1.67;;
10880;SDS011;5493;48.884;8.338;2023-02-26T09:24:56;3.40;;;1.77;;
10880;SDS011;5493;48.884;8.338;2023-02-26T09:27:22;1.83;;;1.43;;
10880;SDS011;5493;48.884;8.338;2023-02-26T09:29:50;3.23;;;1.50;;
10880;SDS011;5493;48.884;8.338;2023-02-26T09:32:17;2.40;;;1.57;;
10880;SDS011;5493;48.884;8.338;2023-02-26T09:34:43;2.70;;;1.60;;
10880;SDS011;5493;48.884;8.338;2023-02-26T09:37:10;3.20;;;1.20;;
10880;SDS011;5493;48.884;8.338;2023-02-26T09:39:37;2.83;;;1.40;;
10880;SDS011;5493;48.884;8.338;2023-02-26T09:42:06;1.93;;;1.50;;
10880;SDS011;5493;48.884;8.338;2023-02-26T09:44:39;1.20;;;1.10;;
10880;SDS011;5493;48.884;8.338;2023-02-26T09:47:11;2.33;;;1.27;;
10880;SDS011;5493;48.884;8.338;2023-02-26T09:49:49;2.97;;;1.10;;
10880;SDS011;5493;48.884;8.338;2023-02-26T09:52:21;2.77;;;1.00;;
10880;SDS011;5493;48.884;8.338;2023-02-26T09:54:51;2.97;;;1.17;;
10880;SDS011;5493;48.884;8.338;2023-02-26T09:57:25;1.83;;;1.30;;
10880;SDS011;5493;48.884;8.338;2023-02-26T09:59:55;4.43;;;1.77;;
10880;SDS011;5493;48.884;8.338;2023-02-26T10:02:27;2.40;;;1.60;;
10880;SDS011;5493;48.884;8.338;2023-02-26T10:05:04;1.93;;;1.50;;
10880;SDS011;5493;48.884;8.338;2023-02-26T10:07:42;4.43;;;1.70;;
10880;SDS011;5493;48.884;8.338;2023-02-26T10:10:16;2.23;;;1.40;;
10880;SDS011;5493;48.884;8.338;2023-02-26T10:12:50;4.07;;;1.60;;
10880;SDS011;5493;48.884;8.338;2023-02-26T10:15:19;2.83;;;1.63;;
10880;SDS011;5493;48.884;8.338;2023-02-26T10:18:01;3.73;;;1.57;;
10880;SDS011;5493;48.884;8.338;2023-02-26T10:20:36;2.10;;;1.10;;
10880;SDS011;5493;48.884;8.338;2023-02-26T10:23:11;2.30;;;1.30;;
10880;SDS011;5493;48.884;8.338;2023-02-26T10:25:45;1.40;;;1.30;;
10880;SDS011;5493;48.884;8.338;2023-02-26T10:28:23;3.23;;;1.20;;
10880;SDS011;5493;48.884;8.338;2023-02-26T10:31:02;2.50;;;1.17;;
10880;SDS011;5493;48.884;8.338;2023-02-26T10:33:37;3.07;;;1.40;;
10880;SDS011;5493;48.884;8.338;2023-02-26T10:36:13;2.47;;;1.40;;
10880;SDS011;5493;48.884;8.338;2023-02-26T10:38:45;1.33;;;1.20;;
10880;SDS011;5493;48.884;8.338;2023-02-26T10:41:17;1.87;;;1.17;;
10880;SDS011;5493;48.884;8.338;2023-02-26T10:43:46;2.10;;;1.50;;
10880;SDS011;5493;48.884;8.338;2023-02-26T10:46:18;1.90;;;1.37;;
10880;SDS011;5493;48.884;8.338;2023-02-26T10:48:57;2.87;;;1.40;;
10880;SDS011;5493;48.884;8.338;2023-02-26T10:51:35;1.27;;;0.80;;
10880;SDS011;5493;48.884;8.338;2023-02-26T10:54:05;1.47;;;1.37;;
10880;SDS011;5493;48.884;8.338;2023-02-26T10:56:40;2.27;;;1.17;;
10880;SDS011;5493;48.884;8.338;2023-02-26T10:59:07;2.07;;;1.50;;
10880;SDS011;5493;48.884;8.338;2023-02-26T11:01:34;2.53;;;1.43;;
10880;SDS011;5493;48.884;8.338;2023-02-26T11:04:03;2.00;;;1.13;;
10880;SDS011;5493;48.884;8.338;2023-02-26T11:06:33;4.10;;;1.47;;
10880;SDS011;5493;48.884;8.338;2023-02-26T11:09:03;1.90;;;1.33;;
10880;SDS011;5493;48.884;8.338;2023-02-26T11:11:40;3.03;;;1.40;;
10880;SDS011;5493;48.884;8.338;2023-02-26T11:14:13;1.97;;;1.30;;
10880;SDS011;5493;48.884;8.338;2023-02-26T11:16:41;1.43;;;1.30;;
10880;SDS011;5493;48.884;8.338;2023-02-26T11:19:13;2.00;;;1.23;;
10880;SDS011;5493;48.884;8.338;2023-02-26T11:21:42;1.70;;;1.07;;
10880;SDS011;5493;48.884;8.338;2023-02-26T11:24:10;1.50;;;1.10;;
10880;SDS011;5493;48.884;8.338;2023-02-26T11:26:43;2.27;;;1.27;;
10880;SDS011;5493;48.884;8.338;2023-02-26T11:29:13;2.10;;;1.20;;
10880;SDS011;5493;48.884;8.338;2023-02-26T11:31:42;2.63;;;1.50;;
10880;SDS011;5493;48.884;8.338;2023-02-26T11:34:13;1.40;;;1.30;;
10880;SDS011;5493;48.884;8.338;2023-02-26T11:36:41;4.80;;;2.40;;
10880;SDS011;5493;48.884;8.338;2023-02-26T11:39:13;6.77;;;4.40;;
10880;SDS011;5493;48.884;8.338;2023-02-26T11:41:41;1.77;;;1.60;;
10880;SDS011;5493;48.884;8.338;2023-02-26T11:44:11;1.73;;;1.30;;
10880;SDS011;5493;48.884;8.338;2023-02-26T11:46:41;0.70;;;0.70;;
10880;SDS011;5493;48.884;8.338;2023-02-26T11:49:10;3.10;;;2.07;;
10880;SDS011;5493;48.884;8.338;2023-02-26T11:51:42;4.83;;;2.40;;
10880;SDS011;5493;48.884;8.338;2023-02-26T11:54:19;1.40;;;1.30;;
10880;SDS011;5493;48.884;8.338;2023-02-26T11:56:47;2.23;;;1.43;;
10880;SDS011;5493;48.884;8.338;2023-02-26T11:59:16;2.67;;;1.33;;
10880;SDS011;5493;48.884;8.338;2023-02-26T12:01:45;2.27;;;1.60;;
10880;SDS011;5493;48.884;8.338;2023-02-26T12:04:12;2.80;;;1.80;;
10880;SDS011;5493;48.884;8.338;2023-02-26T12:06:41;1.50;;;1.37;;
10880;SDS011;5493;48.884;8.338;2023-02-26T12:09:15;2.10;;;1.50;;
10880;SDS011;5493;48.884;8.338;2023-02-26T12:11:56;1.30;;;1.20;;
10880;SDS011;5493;48.884;8.338;2023-02-26T12:14:34;1.93;;;1.60;;
10880;SDS011;5493;48.884;8.338;2023-02-26T12:17:20;1.60;;;1.23;;
10880;SDS011;5493;48.884;8.338;2023-02-26T12:19:58;1.20;;;1.10;;
10880;SDS011;5493;48.884;8.338;2023-02-26T12:22:45;4.03;;;1.27;;
10880;SDS011;5493;48.884;8.338;2023-02-26T12:25:34;1.67;;;1.13;;
10880;SDS011;5493;48.884;8.338;2023-02-26T12:28:33;1.13;;;0.70;;
10880;SDS011;5493;48.884;8.338;2023-02-26T12:31:16;2.00;;;0.97;;
10880;SDS011;5493;48.884;8.338;2023-02-26T12:33:58;1.17;;;1.07;;
10880;SDS011;5493;48.884;8.338;2023-02-26T12:36:42;0.57;;;0.57;;
10880;SDS011;5493;48.884;8.338;2023-02-26T12:39:26;1.67;;;1.40;;
10880;SDS011;5493;48.884;8.338;2023-02-26T12:42:06;0.93;;;0.93;;
10880;SDS011;5493;48.884;8.338;2023-02-26T12:44:51;1.77;;;1.00;;
10880;SDS011;5493;48.884;8.338;2023-02-26T12:47:36;2.07;;;1.30;;
10880;SDS011;5493;48.884;8.338;2023-02-26T12:50:17;2.30;;;1.67;;
10880;SDS011;5493;48.884;8.338;2023-02-26T12:52:58;2.07;;;1.17;;
10880;SDS011;5493;48.884;8.338;2023-02-26T12:55:48;1.13;;;0.70;;
10880;SDS011;5493;48.884;8.338;2023-02-26T12:58:38;2.40;;;1.20;;
10880;SDS011;5493;48.884;8.338;2023-02-26T13:01:28;0.57;;;0.50;;
10880;SDS011;5493;48.884;8.338;2023-02-26T13:04:11;2.30;;;0.87;;
10880;SDS011;5493;48.884;8.338;2023-02-26T13:07:02;0.93;;;0.83;;
10880;SDS011;5493;48.884;8.338;2023-02-26T13:09:40;1.70;;;0.87;;
10880;SDS011;5493;48.884;8.338;2023-02-26T13:12:23;0.60;;;0.50;;
10880;SDS011;5493;48.884;8.338;2023-02-26T13:14:58;2.50;;;1.20;;
10880;SDS011;5493;48.884;8.338;2023-02-26T13:17:37;1.07;;;0.90;;
10880;SDS011;5493;48.884;8.338;2023-02-26T13:20:10;2.47;;;1.47;;
10880;SDS011;5493;48.884;8.338;2023-02-26T13:22:43;1.90;;;1.40;;
10880;SDS011;5493;48.884;8.338;2023-02-26T13:25:15;1.67;;;1.40;;
10880;SDS011;5493;48.884;8.338;2023-02-26T13:27:48;2.20;;;1.80;;
10880;SDS011;5493;48.884;8.338;2023-02-26T13:30:21;1.30;;;1.20;;
10880;SDS011;5493;48.884;8.338;2023-02-26T13:32:52;1.77;;;1.30;;
10880;SDS011;5493;48.884;8.338;2023-02-26T13:35:23;2.37;;;1.50;;
10880;SDS011;5493;48.884;8.338;2023-02-26T13:37:53;1.10;;;1.00;;
10880;SDS011;5493;48.884;8.338;2023-02-26T13:43:23;0.80;;;0.80;;
10880;SDS011;5493;48.884;8.338;2023-02-26T13:46:02;2.57;;;0.83;;
10880;SDS011;5493;48.884;8.338;2023-02-26T13:48:40;1.93;;;0.77;;
10880;SDS011;5493;48.884;8.338;2023-02-26T13:51:13;1.00;;;0.90;;
10880;SDS011;5493;48.884;8.338;2023-02-26T13:53:57;0.77;;;0.77;;
10880;SDS011;5493;48.884;8.338;2023-02-26T13:56:42;2.00;;;0.60;;
10880;SDS011;5493;48.884;8.338;2023-02-26T13:59:29;1.10;;;0.70;;
10880;SDS011;5493;48.884;8.338;2023-02-26T14:02:02;2.10;;;0.87;;
10880;SDS011;5493;48.884;8.338;2023-02-26T14:05:25;0.70;;;0.60;;
10880;SDS011;5493;48.884;8.338;2023-02-26T14:08:09;0.97;;;0.80;;
10880;SDS011;5493;48.884;8.338;2023-02-26T14:10:46;0.80;;;0.77;;
10880;SDS011;5493;48.884;8.338;2023-02-26T14:13:21;3.33;;;0.63;;
10880;SDS011;5493;48.884;8.338;2023-02-26T14:15:51;0.53;;;0.53;;
10880;SDS011;5493;48.884;8.338;2023-02-26T14:18:27;1.10;;;0.77;;
10880;SDS011;5493;48.884;8.338;2023-02-26T14:24:03;0.97;;;0.83;;
10880;SDS011;5493;48.884;8.338;2023-02-26T14:26:37;0.93;;;0.87;;
10880;SDS011;5493;48.884;8.338;2023-02-26T14:29:12;0.83;;;0.80;;
10880;SDS011;5493;48.884;8.338;2023-02-26T14:31:53;1.53;;;0.87;;
10880;SDS011;5493;48.884;8.338;2023-02-26T14:34:27;2.20;;;1.33;;
10880;SDS011;5493;48.884;8.338;2023-02-26T14:36:57;1.70;;;1.23;;
10880;SDS011;5493;48.884;8.338;2023-02-26T14:39:29;2.37;;;1.60;;
10880;SDS011;5493;48.884;8.338;2023-02-26T14:41:59;1.60;;;0.93;;
10880;SDS011;5493;48.884;8.338;2023-02-26T14:44:29;2.77;;;1.17;;
10880;SDS011;5493;48.884;8.338;2023-02-26T14:46:59;3.23;;;1.50;;
10880;SDS011;5493;48.884;8.338;2023-02-26T14:49:27;3.33;;;1.47;;
10880;SDS011;5493;48.884;8.338;2023-02-26T14:58:14;0.97;;;0.90;;
10880;SDS011;5493;48.884;8.338;2023-02-26T15:00:48;0.67;;;0.67;;
10880;SDS011;5493;48.884;8.338;2023-02-26T15:03:22;1.67;;;0.97;;
10880;SDS011;5493;48.884;8.338;2023-02-26T15:06:15;2.77;;;1.03;;
10880;SDS011;5493;48.884;8.338;2023-02-26T15:08:56;2.30;;;1.60;;
10880;SDS011;5493;48.884;8.338;2023-02-26T15:11:42;7.13;;;1.77;;
10880;SDS011;5493;48.884;8.338;2023-02-26T15:14:29;1.03;;;1.00;;
10880;SDS011;5493;48.884;8.338;2023-02-26T15:17:08;0.73;;;0.70;;
10880;SDS011;5493;48.884;8.338;2023-02-26T15:19:49;1.00;;;0.90;;
10880;SDS011;5493;48.884;8.338;2023-02-26T15:22:28;1.37;;;1.10;;
10880;SDS011;5493;48.884;8.338;2023-02-26T15:25:12;1.20;;;0.90;;
10880;SDS011;5493;48.884;8.338;2023-02-26T15:27:45;0.80;;;0.80;;
10880;SDS011;5493;48.884;8.338;2023-02-26T15:30:13;2.20;;;0.83;;
10880;SDS011;5493;48.884;8.338;2023-02-26T15:32:40;1.20;;;0.97;;
10880;SDS011;5493;48.884;8.338;2023-02-26T15:35:13;0.73;;;0.73;;
10880;SDS011;5493;48.884;8.338;2023-02-26T15:37:40;0.70;;;0.70;;
10880;SDS011;5493;48.884;8.338;2023-02-26T15:40:10;1.73;;;0.90;;
10880;SDS011;5493;48.884;8.338;2023-02-26T15:42:39;1.07;;;0.90;;
10880;SDS011;5493;48.884;8.338;2023-02-26T15:45:11;0.60;;;0.60;;
10880;SDS011;5493;48.884;8.338;2023-02-26T15:47:42;2.03;;;0.93;;
10880;SDS011;5493;48.884;8.338;2023-02-26T15:50:12;0.87;;;0.50;;